createdAt,value
2022-08-05T00:00:18.753Z,90.90
2022-08-05T00:02:51.050Z,90.90
2022-08-05T00:06:03.096Z,91.10
2022-08-05T00:08:32.400Z,91.40
2022-08-05T00:11:02.768Z,91.30
2022-08-05T00:13:38.532Z,91.70
2022-08-05T00:16:12.946Z,91.70
2022-08-05T00:18:42.473Z,91.90
2022-08-05T00:21:12.455Z,91.70
2022-08-05T00:23:46.385Z,91.70
2022-08-05T00:26:20.802Z,91.80
2022-08-05T00:28:49.570Z,91.80
2022-08-05T00:31:16.627Z,92.20
2022-08-05T00:34:56.409Z,92.00
2022-08-05T00:37:13.193Z,92.90
2022-08-05T00:39:41.715Z,92.30
2022-08-05T00:42:33.906Z,92.30
2022-08-05T00:45:01.541Z,93.00
2022-08-05T00:47:53.049Z,92.60
2022-08-05T00:50:16.628Z,92.70
2022-08-05T00:52:45.524Z,92.90
2022-08-05T00:55:14.075Z,93.10
2022-08-05T00:57:57.933Z,93.00
2022-08-05T01:00:27.746Z,93.30
2022-08-05T01:02:56.342Z,93.40
2022-08-05T01:05:23.925Z,93.80
2022-08-05T01:08:41.774Z,93.90
2022-08-05T01:11:00.252Z,94.20
2022-08-05T01:13:57.367Z,95.30
2022-08-05T01:16:44.298Z,94.30
2022-08-05T01:19:56.303Z,94.80
2022-08-05T01:22:35.332Z,94.70
2022-08-05T01:25:23.666Z,94.70
2022-08-05T01:28:22.274Z,94.90
2022-08-05T01:31:03.044Z,94.40
2022-08-05T01:33:36.103Z,94.90
2022-08-05T01:36:12.932Z,94.60
2022-08-05T01:38:48.613Z,95.00
2022-08-05T01:41:21.002Z,95.40
2022-08-05T01:43:53.571Z,95.00
2022-08-05T01:46:41.507Z,95.40
2022-08-05T01:49:23.647Z,95.40
2022-08-05T01:51:59.055Z,95.70
2022-08-05T01:54:46.261Z,95.60
2022-08-05T01:58:11.070Z,95.70
2022-08-05T02:00:12.014Z,95.70
2022-08-05T02:02:55.378Z,95.80
2022-08-05T02:05:28.542Z,96.30
2022-08-05T02:08:01.003Z,96.10
2022-08-05T02:10:34.948Z,96.30
2022-08-05T02:13:20.987Z,96.60
2022-08-05T02:15:58.788Z,96.80
2022-08-05T02:18:34.810Z,97.10
2022-08-05T02:21:43.490Z,97.10
2022-08-05T02:24:19.563Z,97.60
2022-08-05T02:26:56.652Z,97.90
2022-08-05T02:29:59.798Z,97.80
2022-08-05T02:32:23.752Z,98.00
2022-08-05T02:35:13.826Z,98.10
2022-08-05T02:37:47.768Z,98.40
2022-08-05T02:40:24.278Z,98.50
2022-08-05T02:42:55.401Z,98.70
2022-08-05T02:45:25.213Z,98.70
2022-08-05T02:48:07.532Z,98.60
2022-08-05T02:50:44.151Z,98.50
2022-08-05T02:53:16.164Z,98.50
2022-08-05T02:56:00.036Z,98.50
2022-08-05T02:58:30.498Z,98.80
2022-08-05T03:01:02.029Z,98.50
2022-08-05T03:03:33.686Z,98.60
2022-08-05T03:06:53.706Z,98.40
2022-08-05T03:08:52.429Z,98.70
2022-08-05T03:11:55.097Z,98.20
2022-08-05T03:14:14.355Z,98.50
2022-08-05T03:16:41.913Z,98.10
2022-08-05T03:19:17.202Z,98.00
2022-08-05T03:21:55.891Z,97.90
2022-08-05T03:24:30.022Z,98.00
2022-08-05T03:27:01.109Z,97.80
2022-08-05T03:29:45.216Z,97.90
2022-08-05T03:32:16.002Z,98.10
2022-08-05T03:34:50.568Z,98.20
2022-08-05T03:37:21.044Z,98.30
2022-08-05T03:40:01.294Z,98.60
2022-08-05T03:42:32.926Z,99.30
2022-08-05T03:45:21.999Z,99.00
2022-08-05T03:47:50.293Z,99.10
2022-08-05T03:50:17.720Z,99.20
2022-08-05T03:55:06.701Z,99.40
2022-08-05T03:56:09.877Z,99.90
2022-08-05T03:58:41.107Z,99.80
2022-08-05T04:01:11.196Z,99.60
2022-08-05T04:03:42.495Z,99.60
2022-08-05T04:06:30.101Z,99.60
2022-08-05T04:08:58.773Z,99.60
2022-08-05T04:11:50.590Z,99.80
2022-08-05T04:14:18.214Z,99.90
2022-08-05T04:16:45.477Z,99.90
2022-08-05T04:19:13.535Z,99.60
2022-08-05T04:22:09.158Z,99.30
2022-08-05T04:24:28.742Z,99.40
2022-08-05T04:26:58.245Z,99.60
2022-08-05T04:29:27.279Z,99.80
2022-08-05T04:31:54.330Z,99.90
2022-08-05T04:34:33.092Z,99.90
2022-08-05T04:37:01.424Z,99.90
2022-08-05T04:39:32.097Z,99.90
2022-08-05T04:41:59.124Z,99.90
2022-08-05T04:44:30.133Z,99.90
2022-08-05T04:46:59.680Z,99.90
2022-08-05T04:49:39.004Z,99.90
2022-08-05T04:52:16.210Z,99.90
2022-08-05T04:54:43.190Z,99.90
2022-08-05T04:57:10.204Z,99.90
2022-08-05T04:59:38.908Z,99.90
2022-08-05T05:02:37.593Z,99.90
2022-08-05T05:04:59.078Z,99.90
2022-08-05T05:07:32.224Z,99.90
2022-08-05T05:10:02.255Z,99.90
2022-08-05T05:12:30.213Z,99.90
2022-08-05T05:14:57.199Z,99.90
2022-08-05T05:17:55.703Z,99.90
2022-08-05T05:20:13.490Z,96.20
2022-08-05T05:22:44.151Z,92.20
2022-08-05T05:25:17.038Z,89.70
2022-08-05T05:27:53.616Z,85.90
2022-08-05T05:30:29.348Z,89.60
2022-08-05T05:33:03.451Z,92.90
2022-08-05T05:35:39.592Z,95.60
2022-08-05T05:38:13.194Z,97.60
2022-08-05T05:40:49.772Z,99.40
2022-08-05T05:43:22.291Z,99.90
2022-08-05T05:46:12.233Z,99.90
2022-08-05T05:48:44.510Z,99.90
2022-08-05T05:51:15.549Z,99.90
2022-08-05T05:53:54.433Z,99.90
2022-08-05T05:56:33.004Z,99.90
2022-08-05T05:59:08.332Z,99.90
2022-08-05T06:01:38.942Z,99.90
2022-08-05T06:04:12.793Z,99.90
2022-08-05T06:06:47.446Z,99.90
2022-08-05T06:09:24.822Z,99.90
2022-08-05T06:12:02.023Z,99.90
2022-08-05T06:14:34.789Z,99.90
2022-08-05T06:17:22.560Z,99.90
2022-08-05T06:19:56.678Z,99.90
2022-08-05T06:22:33.723Z,99.90
2022-08-05T06:25:25.047Z,99.90
2022-08-05T06:28:11.371Z,99.90
2022-08-05T06:30:36.016Z,99.90
2022-08-05T06:33:03.095Z,99.90
2022-08-05T06:36:07.066Z,99.90
2022-08-05T06:38:17.002Z,99.90
2022-08-05T06:40:44.695Z,99.90
2022-08-05T06:43:58.298Z,99.90
2022-08-05T06:46:06.707Z,99.90
2022-08-05T06:48:52.816Z,99.90
2022-08-05T06:51:29.112Z,99.90
2022-08-05T06:54:02.040Z,99.90
2022-08-05T06:56:33.328Z,99.90
2022-08-05T06:59:02.800Z,99.90
2022-08-05T07:01:32.222Z,99.90
2022-08-05T07:04:02.331Z,99.90
2022-08-05T07:06:29.560Z,99.90
2022-08-05T07:08:56.549Z,99.90
2022-08-05T07:11:28.800Z,99.90
2022-08-05T07:14:20.055Z,99.90
2022-08-05T07:17:59.112Z,99.90
2022-08-05T07:22:27.659Z,99.90
2022-08-05T07:24:58.492Z,99.90
2022-08-05T07:27:27.313Z,99.90
2022-08-05T07:30:29.984Z,99.90
2022-08-05T07:32:53.605Z,99.90
2022-08-05T07:36:03.941Z,99.90
2022-08-05T07:38:07.639Z,99.90
2022-08-05T07:40:44.477Z,99.90
2022-08-05T07:43:20.311Z,99.90
2022-08-05T07:45:57.508Z,99.90
2022-08-05T07:49:04.381Z,99.90
2022-08-05T07:51:23.765Z,99.90
2022-08-05T07:54:03.257Z,99.90
2022-08-05T07:56:39.042Z,99.90
2022-08-05T07:59:17.320Z,99.90
2022-08-05T08:01:51.832Z,99.70
2022-08-05T08:04:38.053Z,99.40
2022-08-05T08:07:07.118Z,99.60
2022-08-05T08:09:35.130Z,99.50
2022-08-05T08:12:11.501Z,99.30
2022-08-05T08:14:47.440Z,99.00
2022-08-05T08:17:16.021Z,98.70
2022-08-05T08:20:22.476Z,98.90
2022-08-05T08:22:32.869Z,98.50
2022-08-05T08:25:02.802Z,98.30
2022-08-05T08:27:39.922Z,98.00
2022-08-05T08:30:29.954Z,98.10
2022-08-05T08:33:02.642Z,97.80
2022-08-05T08:35:35.036Z,97.50
2022-08-05T08:38:11.659Z,97.40
2022-08-05T08:40:46.743Z,97.40
2022-08-05T08:43:21.296Z,97.30
2022-08-05T08:46:09.769Z,97.20
2022-08-05T08:48:41.637Z,97.20
2022-08-05T08:52:04.052Z,97.00
2022-08-05T08:54:21.086Z,96.50
2022-08-05T08:56:56.436Z,96.60
2022-08-05T08:59:27.843Z,96.30
2022-08-05T09:02:04.482Z,96.00
2022-08-05T09:04:57.876Z,95.80
2022-08-05T09:07:29.139Z,96.20
2022-08-05T09:10:06.883Z,95.60
2022-08-05T09:12:35.284Z,95.60
2022-08-05T09:15:06.513Z,95.90
2022-08-05T09:17:40.873Z,95.70
2022-08-05T09:20:11.387Z,95.60
2022-08-05T09:23:19.710Z,95.70
2022-08-05T09:26:03.018Z,95.10
2022-08-05T09:28:34.813Z,95.20
2022-08-05T09:31:22.481Z,95.40
2022-08-05T09:33:59.473Z,95.30
2022-08-05T09:36:53.856Z,95.20
2022-08-05T09:39:41.317Z,94.60
2022-08-05T09:42:23.141Z,94.70
2022-08-05T09:44:56.542Z,95.00
2022-08-05T09:47:48.105Z,95.30
2022-08-05T09:50:37.411Z,95.00
2022-08-05T09:53:05.695Z,95.10
2022-08-05T09:55:57.496Z,94.50
2022-08-05T09:58:24.787Z,94.80
2022-08-05T10:01:14.801Z,94.80
2022-08-05T10:03:59.533Z,95.00
2022-08-05T10:06:30.944Z,94.50
2022-08-05T10:09:27.255Z,94.70
2022-08-05T10:11:56.318Z,93.40
2022-08-05T10:14:32.343Z,93.90
2022-08-05T10:17:36.892Z,93.50
2022-08-05T10:20:09.949Z,92.40
2022-08-05T10:22:42.760Z,92.80
2022-08-05T10:25:10.672Z,92.90
2022-08-05T10:28:13.146Z,92.60
2022-08-05T10:31:20.392Z,92.40
2022-08-05T10:33:16.129Z,92.10
2022-08-05T10:35:44.172Z,91.80
2022-08-05T10:38:13.812Z,91.90
2022-08-05T10:41:08.172Z,91.30
2022-08-05T10:43:59.277Z,90.50
2022-08-05T10:46:50.978Z,90.40
2022-08-05T10:49:26.908Z,90.20
2022-08-05T10:52:05.312Z,90.70
2022-08-05T10:55:06.294Z,90.90
2022-08-05T10:57:34.200Z,89.50
2022-08-05T11:00:23.128Z,90.90
2022-08-05T11:03:24.968Z,90.80
2022-08-05T11:06:04.248Z,90.00
2022-08-05T11:08:37.261Z,91.00
2022-08-05T11:11:52.123Z,90.80
2022-08-05T11:14:42.906Z,90.10
2022-08-05T11:17:57.615Z,90.00
2022-08-05T11:20:46.458Z,89.20
2022-08-05T11:24:05.689Z,90.10
2022-08-05T11:26:32.109Z,88.10
2022-08-05T11:29:13.896Z,90.10
2022-08-05T11:31:57.607Z,89.20
2022-08-05T11:34:51.478Z,88.40
2022-08-05T11:38:29.584Z,88.10
2022-08-05T11:41:03.392Z,87.70
2022-08-05T11:44:06.575Z,88.00
2022-08-05T11:46:37.714Z,87.90
2022-08-05T11:49:07.895Z,86.90
2022-08-05T11:51:44.743Z,87.40
2022-08-05T11:54:33.457Z,87.20
2022-08-05T11:57:07.987Z,85.20
2022-08-05T11:59:50.678Z,86.40
2022-08-05T12:02:23.848Z,86.60
2022-08-05T12:04:59.518Z,85.00
2022-08-05T12:08:10.385Z,84.90
2022-08-05T12:10:24.821Z,83.80
2022-08-05T12:13:13.964Z,82.50
2022-08-05T12:15:45.373Z,83.70
2022-08-05T12:18:20.741Z,83.80
2022-08-05T12:20:51.577Z,83.30
2022-08-05T12:23:18.588Z,82.80
2022-08-05T12:25:53.831Z,82.00
2022-08-05T12:28:37.986Z,81.70
2022-08-05T12:31:05.865Z,78.70
2022-08-05T12:33:36.448Z,80.60
2022-08-05T12:36:09.562Z,79.70
2022-08-05T12:38:39.668Z,76.90
2022-08-05T12:41:13.965Z,77.30
2022-08-05T12:43:59.633Z,75.40
2022-08-05T12:46:29.868Z,74.00
2022-08-05T12:49:05.787Z,75.20
2022-08-05T12:52:14.112Z,74.70
2022-08-05T12:54:40.266Z,74.10
2022-08-05T12:57:10.076Z,75.20
2022-08-05T13:01:57.938Z,74.70
2022-08-05T13:02:41.756Z,72.50
2022-08-05T13:05:11.066Z,74.10
2022-08-05T13:07:58.273Z,74.30
2022-08-05T13:10:28.752Z,74.40
2022-08-05T13:12:58.451Z,73.20
2022-08-05T13:15:41.795Z,70.40
2022-08-05T13:18:20.181Z,69.60
2022-08-05T13:20:49.822Z,71.30
2022-08-05T13:23:22.438Z,70.70
2022-08-05T13:26:00.950Z,71.30
2022-08-05T13:28:29.477Z,71.80
2022-08-05T13:30:59.706Z,70.90
2022-08-05T13:34:22.452Z,72.30
2022-08-05T13:36:18.652Z,71.10
2022-08-05T13:38:45.687Z,70.00
2022-08-05T13:41:19.252Z,70.90
2022-08-05T13:43:55.203Z,71.30
2022-08-05T13:46:44.309Z,70.10
2022-08-05T13:49:12.062Z,68.10
2022-08-05T13:51:46.286Z,68.60
2022-08-05T13:54:16.119Z,68.30
2022-08-05T13:56:51.423Z,68.60
2022-08-05T13:59:24.747Z,68.50
2022-08-05T14:01:58.937Z,68.10
2022-08-05T14:04:53.252Z,66.90
2022-08-05T14:07:25.361Z,66.90
2022-08-05T14:10:28.434Z,68.20
2022-08-05T14:12:57.157Z,66.80
2022-08-05T14:16:07.118Z,68.00
2022-08-05T14:18:15.255Z,68.50
2022-08-05T14:20:48.226Z,67.60
2022-08-05T14:23:24.004Z,67.60
2022-08-05T14:25:57.963Z,67.40
2022-08-05T14:28:26.740Z,66.90
2022-08-05T14:30:55.391Z,67.50
2022-08-05T14:33:23.663Z,67.30
2022-08-05T14:35:53.916Z,67.30
2022-08-05T14:38:32.911Z,67.00
2022-08-05T14:41:06.647Z,67.00
2022-08-05T14:44:01.930Z,66.50
2022-08-05T14:46:29.063Z,66.60
2022-08-05T14:49:01.327Z,66.90
2022-08-05T14:51:34.353Z,66.30
2022-08-05T14:54:28.717Z,66.70
2022-08-05T14:56:48.986Z,66.60
2022-08-05T14:59:18.714Z,67.30
2022-08-05T15:01:49.558Z,66.50
2022-08-05T15:04:22.304Z,66.90
2022-08-05T15:06:51.357Z,66.80
2022-08-05T15:09:54.004Z,65.50
2022-08-05T15:12:08.811Z,65.40
2022-08-05T15:14:48.107Z,64.90
2022-08-05T15:17:46.895Z,65.60
2022-08-05T15:20:11.994Z,66.10
2022-08-05T15:22:54.073Z,66.40
2022-08-05T15:25:51.637Z,66.30
2022-08-05T15:28:13.198Z,66.80
2022-08-05T15:30:42.365Z,66.80
2022-08-05T15:33:10.731Z,66.20
2022-08-05T15:35:45.157Z,66.30
2022-08-05T15:38:36.002Z,66.80
2022-08-05T15:41:23.284Z,66.90
2022-08-05T15:43:47.542Z,66.50
2022-08-05T15:46:14.827Z,67.60
2022-08-05T15:48:51.904Z,67.50
2022-08-05T15:52:13.642Z,67.30
2022-08-05T15:54:15.269Z,67.10
2022-08-05T15:56:43.664Z,67.50
2022-08-05T15:59:21.872Z,67.20
2022-08-05T16:01:52.551Z,67.50
2022-08-05T16:04:25.520Z,67.40
2022-08-05T16:06:55.744Z,67.70
2022-08-05T16:09:23.979Z,68.40
2022-08-05T16:11:53.737Z,68.70
2022-08-05T16:14:22.402Z,69.40
2022-08-05T16:16:50.150Z,69.70
2022-08-05T16:19:25.837Z,70.10
2022-08-05T16:22:06.158Z,70.70
2022-08-05T16:24:40.065Z,70.40
2022-08-05T16:27:09.662Z,70.60
2022-08-05T16:29:47.468Z,71.10
2022-08-05T16:32:28.344Z,72.00
2022-08-05T16:34:57.696Z,72.50
2022-08-05T16:38:15.414Z,72.40
2022-08-05T16:40:26.758Z,72.40
2022-08-05T16:42:56.354Z,72.90
2022-08-05T16:46:05.265Z,73.40
2022-08-05T16:48:10.524Z,73.90
2022-08-05T16:50:37.725Z,74.40
2022-08-05T16:53:12.241Z,75.00
2022-08-05T16:55:46.602Z,75.70
2022-08-05T16:58:14.589Z,75.90
2022-08-05T17:00:48.198Z,75.80
2022-08-05T17:03:20.014Z,75.80
2022-08-05T17:05:53.618Z,76.50
2022-08-05T17:08:36.057Z,77.00
2022-08-05T17:11:16.568Z,76.80
2022-08-05T17:13:45.267Z,77.10
2022-08-05T17:16:32.489Z,77.00
2022-08-05T17:19:00.318Z,77.60
2022-08-05T17:21:35.696Z,78.50
2022-08-05T17:24:20.478Z,79.30
2022-08-05T17:26:57.899Z,82.40
2022-08-05T17:29:33.338Z,82.40
2022-08-05T17:32:26.334Z,82.90
2022-08-05T17:34:53.443Z,83.80
2022-08-05T17:37:41.005Z,84.20
2022-08-05T17:40:12.234Z,85.20
2022-08-05T17:42:42.928Z,86.60
2022-08-05T17:45:21.297Z,86.40
2022-08-05T17:47:54.398Z,88.30
2022-08-05T17:50:29.025Z,86.40
2022-08-05T17:52:59.325Z,87.90
2022-08-05T17:55:37.235Z,87.10
2022-08-05T17:58:11.303Z,88.50
2022-08-05T18:00:47.818Z,88.00
2022-08-05T18:03:58.838Z,90.30
2022-08-05T18:06:12.404Z,90.10
2022-08-05T18:08:44.719Z,89.60
2022-08-05T18:11:24.652Z,90.40
2022-08-05T18:14:03.703Z,90.10
2022-08-05T18:16:31.978Z,90.60
2022-08-05T18:18:58.970Z,91.50
2022-08-05T18:21:28.143Z,91.60
2022-08-05T18:24:13.118Z,91.90
2022-08-05T18:26:41.816Z,91.90
2022-08-05T18:29:11.120Z,92.60
2022-08-05T18:31:42.902Z,93.10
2022-08-05T18:34:12.667Z,92.60
2022-08-05T18:36:39.955Z,93.00
2022-08-05T18:39:22.622Z,93.30
2022-08-05T18:42:03.730Z,93.50
2022-08-05T18:44:35.539Z,93.90
2022-08-05T18:47:18.598Z,93.90
2022-08-05T18:50:10.755Z,93.90
2022-08-05T18:52:51.318Z,94.10
2022-08-05T18:55:21.533Z,93.80
2022-08-05T18:57:53.999Z,94.00
2022-08-05T19:00:29.246Z,93.90
2022-08-05T19:03:03.759Z,94.20
2022-08-05T19:06:11.208Z,94.40
2022-08-05T19:08:19.798Z,94.20
2022-08-05T19:10:50.647Z,94.00
2022-08-05T19:13:19.792Z,94.40
2022-08-05T19:16:00.118Z,94.60
2022-08-05T19:18:31.743Z,94.80
2022-08-05T19:20:59.955Z,94.80
2022-08-05T19:24:05.608Z,95.20
2022-08-05T19:26:16.900Z,95.40
2022-08-05T19:28:44.294Z,95.60
2022-08-05T19:31:17.854Z,95.60
2022-08-05T19:33:48.516Z,95.90
2022-08-05T19:36:25.781Z,95.90
2022-08-05T19:38:55.099Z,96.20
2022-08-05T19:41:57.984Z,96.30
2022-08-05T19:44:15.163Z,96.50
2022-08-05T19:46:43.732Z,96.60
2022-08-05T19:49:12.521Z,97.00
2022-08-05T19:52:09.158Z,97.20
2022-08-05T19:54:36.935Z,97.70
2022-08-05T19:57:08.543Z,97.90
2022-08-05T19:59:56.170Z,98.40
2022-08-05T20:02:27.944Z,98.90
2022-08-05T20:04:58.402Z,99.20
2022-08-05T20:07:47.437Z,99.70
2022-08-05T20:10:15.984Z,99.90
2022-08-05T20:12:48.325Z,99.90
2022-08-05T20:15:48.302Z,99.70
2022-08-05T20:18:09.756Z,99.70
2022-08-05T20:20:39.070Z,99.80
2022-08-05T20:23:06.335Z,99.90
2022-08-05T20:25:40.131Z,99.90
2022-08-05T20:28:13.664Z,99.90
2022-08-05T20:30:42.184Z,99.90
2022-08-05T20:33:09.503Z,99.90
2022-08-05T20:35:40.632Z,99.90
2022-08-05T20:38:14.423Z,99.90
2022-08-05T20:40:55.511Z,99.90
2022-08-05T20:43:57.369Z,99.90
2022-08-05T20:46:18.385Z,99.90
2022-08-05T20:48:52.052Z,99.90
2022-08-05T20:51:19.151Z,99.90
2022-08-05T20:53:56.580Z,99.90
2022-08-05T20:56:31.846Z,99.90
2022-08-05T20:59:14.348Z,99.90
2022-08-05T21:01:56.548Z,99.90
2022-08-05T21:04:26.903Z,99.90
2022-08-05T21:06:55.836Z,99.90
2022-08-05T21:09:23.080Z,99.90
2022-08-05T21:12:09.192Z,99.90
2022-08-05T21:14:38.198Z,99.90
2022-08-05T21:17:05.934Z,99.90
2022-08-05T21:19:47.231Z,99.90
2022-08-05T21:22:17.814Z,99.90
2022-08-05T21:24:52.418Z,99.90
2022-08-05T21:27:25.080Z,99.90
2022-08-05T21:29:56.526Z,99.90
2022-08-05T21:32:28.465Z,99.90
2022-08-05T21:35:18.080Z,99.90
2022-08-05T21:37:47.240Z,99.90
2022-08-05T21:40:21.293Z,99.90
2022-08-05T21:42:48.535Z,99.90
2022-08-05T21:45:24.980Z,99.90
2022-08-05T21:48:08.211Z,99.90
2022-08-05T21:50:36.565Z,99.90
2022-08-05T21:53:17.581Z,99.90
2022-08-05T21:56:01.070Z,99.90
2022-08-05T21:58:32.446Z,99.90
2022-08-05T22:01:00.659Z,99.90
2022-08-05T22:03:48.575Z,99.90
2022-08-05T22:06:22.906Z,99.90
2022-08-05T22:09:01.937Z,99.90
2022-08-05T22:11:41.938Z,99.90
2022-08-05T22:14:33.325Z,99.90
2022-08-05T22:17:01.469Z,99.90
2022-08-05T22:20:02.681Z,99.90
2022-08-05T22:22:27.128Z,99.90
2022-08-05T22:25:27.724Z,99.90
2022-08-05T22:28:11.113Z,99.90
2022-08-05T22:30:55.668Z,99.90
2022-08-05T22:33:57.694Z,99.90
2022-08-05T22:36:15.025Z,99.90
2022-08-05T22:38:48.342Z,99.90
2022-08-05T22:42:04.386Z,99.90
2022-08-05T22:44:07.312Z,99.90
2022-08-05T22:46:39.640Z,99.80
2022-08-05T22:49:12.111Z,99.80
2022-08-05T22:52:06.607Z,99.80
2022-08-05T22:54:38.954Z,99.80
2022-08-05T22:57:07.559Z,99.90
2022-08-05T22:59:43.783Z,99.90
2022-08-05T23:02:18.158Z,99.90
2022-08-05T23:04:51.179Z,99.90
2022-08-05T23:07:18.745Z,99.90
2022-08-05T23:09:53.362Z,99.90
2022-08-05T23:12:29.009Z,99.90
2022-08-05T23:15:08.488Z,99.90
2022-08-05T23:17:37.963Z,99.90
2022-08-05T23:20:24.480Z,99.90
2022-08-05T23:22:55.698Z,99.90
2022-08-05T23:25:50.962Z,99.90
2022-08-05T23:28:11.102Z,99.90
2022-08-05T23:30:39.605Z,99.90
2022-08-05T23:33:21.996Z,99.90
2022-08-05T23:35:55.081Z,99.90
2022-08-05T23:38:24.380Z,99.90
2022-08-05T23:40:52.835Z,99.90
2022-08-05T23:43:25.047Z,99.90
2022-08-05T23:46:17.621Z,99.90
2022-08-05T23:49:00.699Z,99.90
2022-08-05T23:51:52.891Z,99.90
2022-08-05T23:54:29.909Z,99.90
2022-08-05T23:57:03.456Z,99.90
